sensor_id;sensor_type;location;lat;lon;timestamp;P1;durP1;ratioP1;P2;durP2;ratioP2
13592;SDS011;6867;50.998;4.250;2023-08-06T00:01:34;4.20;;;2.30;;
13592;SDS011;6867;50.998;4.250;2023-08-06T00:04:00;5.72;;;2.58;;
13592;SDS011;6867;50.998;4.250;2023-08-06T00:06:27;4.97;;;2.97;;
13592;SDS011;6867;50.998;4.250;2023-08-06T00:08:55;6.03;;;2.90;;
13592;SDS011;6867;50.998;4.250;2023-08-06T00:11:22;6.90;;;2.70;;
13592;SDS011;6867;50.998;4.250;2023-08-06T00:13:48;4.97;;;3.03;;
13592;SDS011;6867;50.998;4.250;2023-08-06T00:16:15;5.93;;;2.88;;
13592;SDS011;6867;50.998;4.250;2023-08-06T00:18:41;8.07;;;3.42;;
13592;SDS011;6867;50.998;4.250;2023-08-06T00:21:07;6.78;;;3.13;;
13592;SDS011;6867;50.998;4.250;2023-08-06T00:23:34;7.90;;;2.95;;
13592;SDS011;6867;50.998;4.250;2023-08-06T00:26:02;5.70;;;2.92;;
13592;SDS011;6867;50.998;4.250;2023-08-06T00:28:29;5.18;;;3.13;;
13592;SDS011;6867;50.998;4.250;2023-08-06T00:30:55;6.43;;;2.97;;
13592;SDS011;6867;50.998;4.250;2023-08-06T00:33:22;3.72;;;3.00;;
13592;SDS011;6867;50.998;4.250;2023-08-06T00:35:49;6.35;;;3.80;;
13592;SDS011;6867;50.998;4.250;2023-08-06T00:38:16;6.85;;;3.40;;
13592;SDS011;6867;50.998;4.250;2023-08-06T00:40:43;7.80;;;3.35;;
13592;SDS011;6867;50.998;4.250;2023-08-06T00:43:11;7.75;;;3.50;;
13592;SDS011;6867;50.998;4.250;2023-08-06T00:45:38;12.65;;;4.43;;
13592;SDS011;6867;50.998;4.250;2023-08-06T00:48:05;6.15;;;4.00;;
13592;SDS011;6867;50.998;4.250;2023-08-06T00:50:32;7.40;;;4.28;;
13592;SDS011;6867;50.998;4.250;2023-08-06T00:52:59;9.48;;;5.50;;
13592;SDS011;6867;50.998;4.250;2023-08-06T00:55:27;6.88;;;4.20;;
13592;SDS011;6867;50.998;4.250;2023-08-06T00:57:54;7.72;;;5.03;;
13592;SDS011;6867;50.998;4.250;2023-08-06T01:00:23;6.32;;;4.60;;
13592;SDS011;6867;50.998;4.250;2023-08-06T01:02:50;7.18;;;4.65;;
13592;SDS011;6867;50.998;4.250;2023-08-06T01:05:18;6.70;;;4.65;;
13592;SDS011;6867;50.998;4.250;2023-08-06T01:07:47;8.77;;;4.78;;
13592;SDS011;6867;50.998;4.250;2023-08-06T01:10:25;8.77;;;4.95;;
13592;SDS011;6867;50.998;4.250;2023-08-06T01:13:03;9.52;;;5.55;;
13592;SDS011;6867;50.998;4.250;2023-08-06T01:15:41;7.95;;;4.78;;
13592;SDS011;6867;50.998;4.250;2023-08-06T01:18:12;8.48;;;5.15;;
13592;SDS011;6867;50.998;4.250;2023-08-06T01:20:40;9.55;;;5.00;;
13592;SDS011;6867;50.998;4.250;2023-08-06T01:23:07;10.63;;;5.32;;
13592;SDS011;6867;50.998;4.250;2023-08-06T01:25:34;8.95;;;5.35;;
13592;SDS011;6867;50.998;4.250;2023-08-06T01:28:08;8.00;;;5.63;;
13592;SDS011;6867;50.998;4.250;2023-08-06T01:30:49;12.25;;;6.18;;
13592;SDS011;6867;50.998;4.250;2023-08-06T01:33:19;10.93;;;6.43;;
13592;SDS011;6867;50.998;4.250;2023-08-06T01:35:50;9.23;;;6.05;;
13592;SDS011;6867;50.998;4.250;2023-08-06T01:38:18;8.23;;;5.28;;
13592;SDS011;6867;50.998;4.250;2023-08-06T01:40:45;13.98;;;6.70;;
13592;SDS011;6867;50.998;4.250;2023-08-06T01:43:11;9.18;;;6.63;;
13592;SDS011;6867;50.998;4.250;2023-08-06T01:45:38;10.35;;;6.40;;
13592;SDS011;6867;50.998;4.250;2023-08-06T01:48:04;13.95;;;7.40;;
13592;SDS011;6867;50.998;4.250;2023-08-06T01:50:31;7.18;;;5.28;;
13592;SDS011;6867;50.998;4.250;2023-08-06T01:52:59;7.57;;;5.43;;
13592;SDS011;6867;50.998;4.250;2023-08-06T01:55:26;10.27;;;5.82;;
13592;SDS011;6867;50.998;4.250;2023-08-06T01:57:52;9.60;;;6.22;;
13592;SDS011;6867;50.998;4.250;2023-08-06T02:00:19;9.90;;;6.55;;
13592;SDS011;6867;50.998;4.250;2023-08-06T02:02:46;8.38;;;6.45;;
13592;SDS011;6867;50.998;4.250;2023-08-06T02:05:12;10.35;;;6.50;;
13592;SDS011;6867;50.998;4.250;2023-08-06T02:07:39;12.85;;;7.80;;
13592;SDS011;6867;50.998;4.250;2023-08-06T02:10:08;9.32;;;6.13;;
13592;SDS011;6867;50.998;4.250;2023-08-06T02:12:34;12.57;;;6.20;;
13592;SDS011;6867;50.998;4.250;2023-08-06T02:15:01;10.45;;;7.38;;
13592;SDS011;6867;50.998;4.250;2023-08-06T02:17:28;11.13;;;6.88;;
13592;SDS011;6867;50.998;4.250;2023-08-06T02:19:54;12.18;;;6.78;;
13592;SDS011;6867;50.998;4.250;2023-08-06T02:22:21;10.10;;;6.78;;
13592;SDS011;6867;50.998;4.250;2023-08-06T02:24:48;12.43;;;7.50;;
13592;SDS011;6867;50.998;4.250;2023-08-06T02:27:17;13.98;;;7.38;;
13592;SDS011;6867;50.998;4.250;2023-08-06T02:29:43;14.32;;;7.93;;
13592;SDS011;6867;50.998;4.250;2023-08-06T02:32:10;13.13;;;7.20;;
13592;SDS011;6867;50.998;4.250;2023-08-06T02:34:37;16.73;;;8.50;;
13592;SDS011;6867;50.998;4.250;2023-08-06T02:37:03;14.45;;;8.50;;
13592;SDS011;6867;50.998;4.250;2023-08-06T02:39:30;14.00;;;8.73;;
13592;SDS011;6867;50.998;4.250;2023-08-06T02:41:58;15.23;;;8.70;;
13592;SDS011;6867;50.998;4.250;2023-08-06T02:44:28;14.38;;;8.35;;
13592;SDS011;6867;50.998;4.250;2023-08-06T02:46:54;15.30;;;9.00;;
13592;SDS011;6867;50.998;4.250;2023-08-06T02:49:21;13.48;;;9.15;;
13592;SDS011;6867;50.998;4.250;2023-08-06T02:51:48;18.75;;;9.32;;
13592;SDS011;6867;50.998;4.250;2023-08-06T02:54:14;13.77;;;8.48;;
13592;SDS011;6867;50.998;4.250;2023-08-06T02:56:42;21.15;;;9.57;;
13592;SDS011;6867;50.998;4.250;2023-08-06T02:59:09;21.27;;;9.23;;
13592;SDS011;6867;50.998;4.250;2023-08-06T03:01:37;15.70;;;8.73;;
13592;SDS011;6867;50.998;4.250;2023-08-06T03:04:04;17.52;;;8.50;;
13592;SDS011;6867;50.998;4.250;2023-08-06T03:06:31;17.05;;;9.48;;
13592;SDS011;6867;50.998;4.250;2023-08-06T03:08:58;20.40;;;8.93;;
13592;SDS011;6867;50.998;4.250;2023-08-06T03:11:24;16.65;;;9.20;;
13592;SDS011;6867;50.998;4.250;2023-08-06T03:13:51;16.50;;;8.40;;
13592;SDS011;6867;50.998;4.250;2023-08-06T03:16:18;14.13;;;8.40;;
13592;SDS011;6867;50.998;4.250;2023-08-06T03:18:46;12.40;;;7.55;;
13592;SDS011;6867;50.998;4.250;2023-08-06T03:21:12;8.98;;;5.38;;
13592;SDS011;6867;50.998;4.250;2023-08-06T03:23:39;9.50;;;5.57;;
13592;SDS011;6867;50.998;4.250;2023-08-06T03:26:06;7.25;;;4.47;;
13592;SDS011;6867;50.998;4.250;2023-08-06T03:28:32;4.57;;;2.83;;
13592;SDS011;6867;50.998;4.250;2023-08-06T03:30:59;4.20;;;2.75;;
13592;SDS011;6867;50.998;4.250;2023-08-06T03:33:26;2.33;;;1.90;;
13592;SDS011;6867;50.998;4.250;2023-08-06T03:35:54;2.13;;;1.50;;
13592;SDS011;6867;50.998;4.250;2023-08-06T03:38:21;2.75;;;1.25;;
13592;SDS011;6867;50.998;4.250;2023-08-06T03:40:48;1.20;;;0.90;;
13592;SDS011;6867;50.998;4.250;2023-08-06T03:43:15;1.25;;;0.80;;
13592;SDS011;6867;50.998;4.250;2023-08-06T03:45:42;1.38;;;1.10;;
13592;SDS011;6867;50.998;4.250;2023-08-06T03:48:09;1.55;;;1.33;;
13592;SDS011;6867;50.998;4.250;2023-08-06T03:50:36;2.95;;;1.90;;
13592;SDS011;6867;50.998;4.250;2023-08-06T03:53:04;4.10;;;2.65;;
13592;SDS011;6867;50.998;4.250;2023-08-06T03:55:31;3.30;;;2.30;;
13592;SDS011;6867;50.998;4.250;2023-08-06T03:57:57;2.95;;;1.90;;
13592;SDS011;6867;50.998;4.250;2023-08-06T04:00:24;3.42;;;2.00;;
13592;SDS011;6867;50.998;4.250;2023-08-06T04:02:51;4.15;;;1.90;;
13592;SDS011;6867;50.998;4.250;2023-08-06T04:05:18;1.85;;;1.60;;
13592;SDS011;6867;50.998;4.250;2023-08-06T04:07:44;1.90;;;1.70;;
13592;SDS011;6867;50.998;4.250;2023-08-06T04:10:12;3.40;;;1.58;;
13592;SDS011;6867;50.998;4.250;2023-08-06T04:12:39;5.55;;;2.47;;
13592;SDS011;6867;50.998;4.250;2023-08-06T04:15:06;6.82;;;2.83;;
13592;SDS011;6867;50.998;4.250;2023-08-06T04:17:33;4.93;;;2.90;;
13592;SDS011;6867;50.998;4.250;2023-08-06T04:20:00;11.73;;;3.22;;
13592;SDS011;6867;50.998;4.250;2023-08-06T04:22:27;7.93;;;3.50;;
13592;SDS011;6867;50.998;4.250;2023-08-06T04:24:54;9.20;;;3.53;;
13592;SDS011;6867;50.998;4.250;2023-08-06T04:27:22;10.88;;;3.80;;
13592;SDS011;6867;50.998;4.250;2023-08-06T04:29:48;6.20;;;3.97;;
13592;SDS011;6867;50.998;4.250;2023-08-06T04:32:15;7.45;;;4.28;;
13592;SDS011;6867;50.998;4.250;2023-08-06T04:34:42;7.65;;;4.28;;
13592;SDS011;6867;50.998;4.250;2023-08-06T04:37:09;6.03;;;4.20;;
13592;SDS011;6867;50.998;4.250;2023-08-06T04:39:36;9.10;;;5.28;;
13592;SDS011;6867;50.998;4.250;2023-08-06T04:42:03;11.18;;;5.55;;
13592;SDS011;6867;50.998;4.250;2023-08-06T04:44:31;5.28;;;4.45;;
13592;SDS011;6867;50.998;4.250;2023-08-06T04:46:58;7.32;;;5.03;;
13592;SDS011;6867;50.998;4.250;2023-08-06T04:49:24;9.40;;;4.97;;
13592;SDS011;6867;50.998;4.250;2023-08-06T04:51:51;6.85;;;4.55;;
13592;SDS011;6867;50.998;4.250;2023-08-06T04:54:18;10.18;;;5.30;;
13592;SDS011;6867;50.998;4.250;2023-08-06T04:56:44;9.05;;;5.47;;
13592;SDS011;6867;50.998;4.250;2023-08-06T04:59:11;8.45;;;4.57;;
13592;SDS011;6867;50.998;4.250;2023-08-06T05:01:39;8.18;;;4.57;;
13592;SDS011;6867;50.998;4.250;2023-08-06T05:04:06;7.38;;;4.75;;
13592;SDS011;6867;50.998;4.250;2023-08-06T05:06:32;9.48;;;5.07;;
13592;SDS011;6867;50.998;4.250;2023-08-06T05:08:59;9.38;;;5.05;;
13592;SDS011;6867;50.998;4.250;2023-08-06T05:11:25;9.63;;;4.65;;
13592;SDS011;6867;50.998;4.250;2023-08-06T05:13:52;11.60;;;4.55;;
13592;SDS011;6867;50.998;4.250;2023-08-06T05:16:19;6.40;;;4.28;;
13592;SDS011;6867;50.998;4.250;2023-08-06T05:18:47;11.55;;;4.82;;
13592;SDS011;6867;50.998;4.250;2023-08-06T05:21:13;9.95;;;4.10;;
13592;SDS011;6867;50.998;4.250;2023-08-06T05:23:41;14.35;;;4.38;;
13592;SDS011;6867;50.998;4.250;2023-08-06T05:26:08;9.00;;;4.05;;
13592;SDS011;6867;50.998;4.250;2023-08-06T05:28:35;8.00;;;4.20;;
13592;SDS011;6867;50.998;4.250;2023-08-06T05:31:03;9.68;;;4.47;;
13592;SDS011;6867;50.998;4.250;2023-08-06T05:33:30;13.35;;;4.78;;
13592;SDS011;6867;50.998;4.250;2023-08-06T05:35:58;9.38;;;4.45;;
13592;SDS011;6867;50.998;4.250;2023-08-06T05:38:24;10.52;;;4.97;;
13592;SDS011;6867;50.998;4.250;2023-08-06T05:40:51;8.95;;;4.53;;
13592;SDS011;6867;50.998;4.250;2023-08-06T05:43:18;11.02;;;4.20;;
13592;SDS011;6867;50.998;4.250;2023-08-06T05:45:44;11.63;;;4.70;;
13592;SDS011;6867;50.998;4.250;2023-08-06T05:48:12;14.93;;;4.60;;
13592;SDS011;6867;50.998;4.250;2023-08-06T05:50:38;7.68;;;4.13;;
13592;SDS011;6867;50.998;4.250;2023-08-06T05:53:06;13.00;;;4.60;;
13592;SDS011;6867;50.998;4.250;2023-08-06T05:55:33;16.58;;;4.65;;
13592;SDS011;6867;50.998;4.250;2023-08-06T05:58:00;9.10;;;4.25;;
13592;SDS011;6867;50.998;4.250;2023-08-06T06:00:27;15.80;;;4.15;;
13592;SDS011;6867;50.998;4.250;2023-08-06T06:02:54;7.78;;;4.10;;
13592;SDS011;6867;50.998;4.250;2023-08-06T06:05:20;11.07;;;4.00;;
13592;SDS011;6867;50.998;4.250;2023-08-06T06:07:47;10.38;;;4.57;;
13592;SDS011;6867;50.998;4.250;2023-08-06T06:10:15;8.20;;;3.50;;
13592;SDS011;6867;50.998;4.250;2023-08-06T06:12:42;7.28;;;3.58;;
13592;SDS011;6867;50.998;4.250;2023-08-06T06:15:09;10.10;;;3.60;;
13592;SDS011;6867;50.998;4.250;2023-08-06T06:17:36;7.97;;;3.60;;
13592;SDS011;6867;50.998;4.250;2023-08-06T06:20:03;13.65;;;4.50;;
13592;SDS011;6867;50.998;4.250;2023-08-06T06:22:30;8.80;;;3.72;;
13592;SDS011;6867;50.998;4.250;2023-08-06T06:24:57;14.27;;;4.25;;
13592;SDS011;6867;50.998;4.250;2023-08-06T06:27:25;10.65;;;3.83;;
13592;SDS011;6867;50.998;4.250;2023-08-06T06:29:51;10.68;;;3.75;;
13592;SDS011;6867;50.998;4.250;2023-08-06T06:32:19;10.40;;;3.80;;
13592;SDS011;6867;50.998;4.250;2023-08-06T06:34:46;12.18;;;3.60;;
13592;SDS011;6867;50.998;4.250;2023-08-06T06:37:13;7.50;;;3.53;;
13592;SDS011;6867;50.998;4.250;2023-08-06T06:39:40;9.23;;;3.40;;
13592;SDS011;6867;50.998;4.250;2023-08-06T06:42:06;12.95;;;3.95;;
13592;SDS011;6867;50.998;4.250;2023-08-06T06:44:34;12.63;;;3.65;;
13592;SDS011;6867;50.998;4.250;2023-08-06T06:47:01;9.60;;;3.13;;
13592;SDS011;6867;50.998;4.250;2023-08-06T06:49:27;9.13;;;3.75;;
13592;SDS011;6867;50.998;4.250;2023-08-06T06:51:54;11.57;;;3.13;;
13592;SDS011;6867;50.998;4.250;2023-08-06T06:54:21;9.73;;;2.45;;
13592;SDS011;6867;50.998;4.250;2023-08-06T06:56:47;11.88;;;2.55;;
13592;SDS011;6867;50.998;4.250;2023-08-06T06:59:14;6.55;;;2.15;;
13592;SDS011;6867;50.998;4.250;2023-08-06T07:01:42;9.20;;;2.22;;
13592;SDS011;6867;50.998;4.250;2023-08-06T07:04:09;8.43;;;2.10;;
13592;SDS011;6867;50.998;4.250;2023-08-06T07:06:36;4.78;;;1.80;;
13592;SDS011;6867;50.998;4.250;2023-08-06T07:09:03;11.10;;;2.35;;
13592;SDS011;6867;50.998;4.250;2023-08-06T07:11:30;6.10;;;1.50;;
13592;SDS011;6867;50.998;4.250;2023-08-06T07:13:57;3.97;;;1.63;;
13592;SDS011;6867;50.998;4.250;2023-08-06T07:16:24;2.95;;;1.35;;
13592;SDS011;6867;50.998;4.250;2023-08-06T07:18:53;7.15;;;1.58;;
13592;SDS011;6867;50.998;4.250;2023-08-06T07:21:20;8.65;;;2.53;;
13592;SDS011;6867;50.998;4.250;2023-08-06T07:23:47;5.88;;;1.77;;
13592;SDS011;6867;50.998;4.250;2023-08-06T07:26:15;6.53;;;1.55;;
13592;SDS011;6867;50.998;4.250;2023-08-06T07:28:42;13.07;;;2.30;;
13592;SDS011;6867;50.998;4.250;2023-08-06T07:31:09;13.23;;;2.35;;
13592;SDS011;6867;50.998;4.250;2023-08-06T07:33:36;13.50;;;2.45;;
13592;SDS011;6867;50.998;4.250;2023-08-06T07:36:08;9.75;;;2.40;;
13592;SDS011;6867;50.998;4.250;2023-08-06T07:38:36;8.05;;;2.17;;
13592;SDS011;6867;50.998;4.250;2023-08-06T07:41:02;10.77;;;1.90;;
13592;SDS011;6867;50.998;4.250;2023-08-06T07:43:30;7.03;;;1.65;;
13592;SDS011;6867;50.998;4.250;2023-08-06T07:45:57;9.57;;;2.30;;
13592;SDS011;6867;50.998;4.250;2023-08-06T07:48:24;11.35;;;1.77;;
13592;SDS011;6867;50.998;4.250;2023-08-06T07:50:51;7.15;;;2.15;;
13592;SDS011;6867;50.998;4.250;2023-08-06T07:53:20;5.82;;;1.75;;
13592;SDS011;6867;50.998;4.250;2023-08-06T07:55:48;8.35;;;1.65;;
13592;SDS011;6867;50.998;4.250;2023-08-06T07:58:16;11.48;;;3.25;;
13592;SDS011;6867;50.998;4.250;2023-08-06T08:00:43;8.20;;;2.03;;
13592;SDS011;6867;50.998;4.250;2023-08-06T08:03:10;6.82;;;1.40;;
13592;SDS011;6867;50.998;4.250;2023-08-06T08:05:38;4.88;;;1.80;;
13592;SDS011;6867;50.998;4.250;2023-08-06T08:08:04;7.20;;;1.50;;
13592;SDS011;6867;50.998;4.250;2023-08-06T08:10:33;8.45;;;1.67;;
13592;SDS011;6867;50.998;4.250;2023-08-06T08:12:59;5.80;;;1.77;;
13592;SDS011;6867;50.998;4.250;2023-08-06T08:15:27;5.60;;;1.45;;
13592;SDS011;6867;50.998;4.250;2023-08-06T08:17:54;8.45;;;1.90;;
13592;SDS011;6867;50.998;4.250;2023-08-06T08:20:21;6.18;;;1.48;;
13592;SDS011;6867;50.998;4.250;2023-08-06T08:22:48;6.05;;;1.80;;
13592;SDS011;6867;50.998;4.250;2023-08-06T08:25:15;7.57;;;1.20;;
13592;SDS011;6867;50.998;4.250;2023-08-06T08:27:43;7.20;;;1.20;;
13592;SDS011;6867;50.998;4.250;2023-08-06T08:30:10;9.30;;;2.00;;
13592;SDS011;6867;50.998;4.250;2023-08-06T08:32:37;5.07;;;1.35;;
13592;SDS011;6867;50.998;4.250;2023-08-06T08:35:04;7.88;;;1.60;;
13592;SDS011;6867;50.998;4.250;2023-08-06T08:37:31;6.78;;;2.08;;
13592;SDS011;6867;50.998;4.250;2023-08-06T08:39:57;6.28;;;1.50;;
13592;SDS011;6867;50.998;4.250;2023-08-06T08:42:25;3.20;;;1.40;;
13592;SDS011;6867;50.998;4.250;2023-08-06T08:44:54;5.38;;;1.77;;
13592;SDS011;6867;50.998;4.250;2023-08-06T08:47:21;5.45;;;1.73;;
13592;SDS011;6867;50.998;4.250;2023-08-06T08:49:50;3.53;;;1.40;;
13592;SDS011;6867;50.998;4.250;2023-08-06T08:52:20;5.47;;;1.40;;
13592;SDS011;6867;50.998;4.250;2023-08-06T08:54:48;10.02;;;2.40;;
13592;SDS011;6867;50.998;4.250;2023-08-06T08:57:16;6.47;;;1.95;;
13592;SDS011;6867;50.998;4.250;2023-08-06T08:59:43;8.65;;;1.88;;
13592;SDS011;6867;50.998;4.250;2023-08-06T09:02:12;6.38;;;1.83;;
13592;SDS011;6867;50.998;4.250;2023-08-06T09:04:40;8.68;;;1.77;;
13592;SDS011;6867;50.998;4.250;2023-08-06T09:07:08;6.63;;;1.67;;
13592;SDS011;6867;50.998;4.250;2023-08-06T09:09:39;6.97;;;1.50;;
13592;SDS011;6867;50.998;4.250;2023-08-06T09:12:10;9.32;;;2.25;;
13592;SDS011;6867;50.998;4.250;2023-08-06T09:14:40;8.85;;;1.70;;
13592;SDS011;6867;50.998;4.250;2023-08-06T09:17:07;9.02;;;2.03;;
13592;SDS011;6867;50.998;4.250;2023-08-06T09:19:37;8.98;;;2.25;;
13592;SDS011;6867;50.998;4.250;2023-08-06T09:22:04;7.32;;;2.22;;
13592;SDS011;6867;50.998;4.250;2023-08-06T09:24:38;6.72;;;1.95;;
13592;SDS011;6867;50.998;4.250;2023-08-06T09:27:05;8.30;;;2.17;;
13592;SDS011;6867;50.998;4.250;2023-08-06T09:29:31;10.57;;;2.10;;
13592;SDS011;6867;50.998;4.250;2023-08-06T09:31:59;9.82;;;2.22;;
13592;SDS011;6867;50.998;4.250;2023-08-06T09:34:25;7.47;;;2.30;;
13592;SDS011;6867;50.998;4.250;2023-08-06T09:36:54;13.30;;;2.33;;
13592;SDS011;6867;50.998;4.250;2023-08-06T09:39:21;7.68;;;2.00;;
13592;SDS011;6867;50.998;4.250;2023-08-06T09:41:55;9.95;;;2.40;;
13592;SDS011;6867;50.998;4.250;2023-08-06T09:44:24;9.77;;;2.72;;
13592;SDS011;6867;50.998;4.250;2023-08-06T09:46:51;5.78;;;2.08;;
13592;SDS011;6867;50.998;4.250;2023-08-06T09:49:19;13.23;;;2.10;;
13592;SDS011;6867;50.998;4.250;2023-08-06T09:51:46;8.95;;;2.08;;
13592;SDS011;6867;50.998;4.250;2023-08-06T09:54:17;7.25;;;2.65;;
13592;SDS011;6867;50.998;4.250;2023-08-06T09:56:44;8.35;;;2.40;;
13592;SDS011;6867;50.998;4.250;2023-08-06T09:59:11;11.70;;;2.38;;
13592;SDS011;6867;50.998;4.250;2023-08-06T10:01:38;7.68;;;2.20;;
13592;SDS011;6867;50.998;4.250;2023-08-06T10:04:05;10.00;;;2.15;;
13592;SDS011;6867;50.998;4.250;2023-08-06T10:06:34;8.23;;;2.08;;
13592;SDS011;6867;50.998;4.250;2023-08-06T10:09:01;8.75;;;2.13;;
13592;SDS011;6867;50.998;4.250;2023-08-06T10:11:30;6.35;;;1.48;;
13592;SDS011;6867;50.998;4.250;2023-08-06T10:13:58;3.83;;;1.65;;
13592;SDS011;6867;50.998;4.250;2023-08-06T10:16:30;6.40;;;1.80;;
13592;SDS011;6867;50.998;4.250;2023-08-06T10:18:58;8.95;;;1.83;;
13592;SDS011;6867;50.998;4.250;2023-08-06T10:21:25;12.10;;;1.90;;
13592;SDS011;6867;50.998;4.250;2023-08-06T10:23:55;9.35;;;2.03;;
13592;SDS011;6867;50.998;4.250;2023-08-06T10:26:24;3.67;;;1.40;;
13592;SDS011;6867;50.998;4.250;2023-08-06T10:28:53;6.35;;;1.55;;
13592;SDS011;6867;50.998;4.250;2023-08-06T10:31:20;4.25;;;1.20;;
13592;SDS011;6867;50.998;4.250;2023-08-06T10:34:07;4.03;;;1.40;;
13592;SDS011;6867;50.998;4.250;2023-08-06T10:36:33;4.90;;;2.15;;
13592;SDS011;6867;50.998;4.250;2023-08-06T10:39:00;7.38;;;1.75;;
13592;SDS011;6867;50.998;4.250;2023-08-06T10:41:28;7.10;;;1.58;;
13592;SDS011;6867;50.998;4.250;2023-08-06T10:44:06;8.93;;;1.98;;
13592;SDS011;6867;50.998;4.250;2023-08-06T10:46:34;7.47;;;2.33;;
13592;SDS011;6867;50.998;4.250;2023-08-06T10:49:01;8.88;;;2.03;;
13592;SDS011;6867;50.998;4.250;2023-08-06T10:51:28;6.85;;;2.03;;
13592;SDS011;6867;50.998;4.250;2023-08-06T10:53:55;10.43;;;2.58;;
13592;SDS011;6867;50.998;4.250;2023-08-06T10:56:23;9.27;;;2.85;;
13592;SDS011;6867;50.998;4.250;2023-08-06T10:58:53;5.88;;;2.25;;
13592;SDS011;6867;50.998;4.250;2023-08-06T11:01:22;6.57;;;2.47;;
13592;SDS011;6867;50.998;4.250;2023-08-06T11:03:49;11.10;;;2.33;;
13592;SDS011;6867;50.998;4.250;2023-08-06T11:06:18;10.45;;;2.20;;
13592;SDS011;6867;50.998;4.250;2023-08-06T11:08:49;7.78;;;2.40;;
13592;SDS011;6867;50.998;4.250;2023-08-06T11:11:18;6.90;;;1.85;;
13592;SDS011;6867;50.998;4.250;2023-08-06T11:13:45;5.93;;;2.38;;
13592;SDS011;6867;50.998;4.250;2023-08-06T11:16:13;6.07;;;2.75;;
13592;SDS011;6867;50.998;4.250;2023-08-06T11:18:42;7.03;;;2.30;;
13592;SDS011;6867;50.998;4.250;2023-08-06T11:21:09;2.35;;;1.60;;
13592;SDS011;6867;50.998;4.250;2023-08-06T11:23:37;6.43;;;2.55;;
13592;SDS011;6867;50.998;4.250;2023-08-06T11:26:04;8.20;;;2.00;;
13592;SDS011;6867;50.998;4.250;2023-08-06T11:28:30;8.05;;;1.92;;
13592;SDS011;6867;50.998;4.250;2023-08-06T11:30:57;5.00;;;1.65;;
13592;SDS011;6867;50.998;4.250;2023-08-06T11:33:27;5.35;;;1.80;;
13592;SDS011;6867;50.998;4.250;2023-08-06T11:35:56;5.82;;;2.20;;
13592;SDS011;6867;50.998;4.250;2023-08-06T11:38:24;4.15;;;1.80;;
13592;SDS011;6867;50.998;4.250;2023-08-06T11:40:52;7.07;;;2.10;;
13592;SDS011;6867;50.998;4.250;2023-08-06T11:43:19;4.78;;;1.80;;
13592;SDS011;6867;50.998;4.250;2023-08-06T11:45:47;7.05;;;1.92;;
13592;SDS011;6867;50.998;4.250;2023-08-06T11:48:15;4.10;;;1.73;;
13592;SDS011;6867;50.998;4.250;2023-08-06T11:50:43;5.93;;;1.38;;
13592;SDS011;6867;50.998;4.250;2023-08-06T11:53:13;4.00;;;1.45;;
13592;SDS011;6867;50.998;4.250;2023-08-06T11:55:40;4.05;;;1.58;;
13592;SDS011;6867;50.998;4.250;2023-08-06T11:58:08;9.80;;;2.03;;
13592;SDS011;6867;50.998;4.250;2023-08-06T12:00:36;7.43;;;1.92;;
13592;SDS011;6867;50.998;4.250;2023-08-06T12:03:04;10.80;;;2.13;;
13592;SDS011;6867;50.998;4.250;2023-08-06T12:05:31;7.55;;;1.90;;
13592;SDS011;6867;50.998;4.250;2023-08-06T12:07:59;7.40;;;1.60;;
13592;SDS011;6867;50.998;4.250;2023-08-06T12:10:29;8.50;;;2.10;;
13592;SDS011;6867;50.998;4.250;2023-08-06T12:12:58;7.13;;;1.40;;
13592;SDS011;6867;50.998;4.250;2023-08-06T12:15:24;6.82;;;1.92;;
13592;SDS011;6867;50.998;4.250;2023-08-06T12:17:51;9.52;;;1.80;;
13592;SDS011;6867;50.998;4.250;2023-08-06T12:20:18;8.38;;;2.10;;
13592;SDS011;6867;50.998;4.250;2023-08-06T12:22:45;8.90;;;2.58;;
13592;SDS011;6867;50.998;4.250;2023-08-06T12:25:11;8.60;;;1.90;;
13592;SDS011;6867;50.998;4.250;2023-08-06T12:27:40;9.98;;;1.90;;
13592;SDS011;6867;50.998;4.250;2023-08-06T12:30:09;7.50;;;1.90;;
13592;SDS011;6867;50.998;4.250;2023-08-06T12:32:37;4.25;;;1.80;;
13592;SDS011;6867;50.998;4.250;2023-08-06T12:35:04;9.68;;;1.88;;
13592;SDS011;6867;50.998;4.250;2023-08-06T12:37:32;5.38;;;1.75;;
13592;SDS011;6867;50.998;4.250;2023-08-06T12:39:59;8.70;;;2.10;;
13592;SDS011;6867;50.998;4.250;2023-08-06T12:42:26;8.18;;;1.63;;
13592;SDS011;6867;50.998;4.250;2023-08-06T12:44:54;9.98;;;2.05;;
13592;SDS011;6867;50.998;4.250;2023-08-06T12:47:20;7.72;;;1.90;;
13592;SDS011;6867;50.998;4.250;2023-08-06T12:49:47;5.63;;;1.80;;
13592;SDS011;6867;50.998;4.250;2023-08-06T12:52:14;8.05;;;2.38;;
13592;SDS011;6867;50.998;4.250;2023-08-06T12:54:41;7.50;;;1.85;;
13592;SDS011;6867;50.998;4.250;2023-08-06T12:57:08;7.38;;;2.03;;
13592;SDS011;6867;50.998;4.250;2023-08-06T12:59:34;7.82;;;1.75;;
13592;SDS011;6867;50.998;4.250;2023-08-06T13:02:03;8.55;;;2.28;;
13592;SDS011;6867;50.998;4.250;2023-08-06T13:04:30;9.60;;;2.40;;
13592;SDS011;6867;50.998;4.250;2023-08-06T13:06:59;4.68;;;1.88;;
13592;SDS011;6867;50.998;4.250;2023-08-06T13:09:25;11.43;;;2.42;;
13592;SDS011;6867;50.998;4.250;2023-08-06T13:11:52;8.02;;;1.98;;
13592;SDS011;6867;50.998;4.250;2023-08-06T13:14:19;7.95;;;1.58;;
13592;SDS011;6867;50.998;4.250;2023-08-06T13:16:46;9.35;;;2.05;;
13592;SDS011;6867;50.998;4.250;2023-08-06T13:19:14;7.45;;;2.00;;
13592;SDS011;6867;50.998;4.250;2023-08-06T13:22:00;4.68;;;2.00;;
13592;SDS011;6867;50.998;4.250;2023-08-06T13:24:29;7.00;;;2.05;;
13592;SDS011;6867;50.998;4.250;2023-08-06T13:26:56;6.45;;;2.22;;
13592;SDS011;6867;50.998;4.250;2023-08-06T13:29:22;4.68;;;1.60;;
13592;SDS011;6867;50.998;4.250;2023-08-06T13:31:49;8.77;;;1.77;;
13592;SDS011;6867;50.998;4.250;2023-08-06T13:34:17;4.93;;;1.90;;
13592;SDS011;6867;50.998;4.250;2023-08-06T13:36:44;5.95;;;1.88;;
13592;SDS011;6867;50.998;4.250;2023-08-06T13:39:11;8.05;;;1.58;;
13592;SDS011;6867;50.998;4.250;2023-08-06T13:41:37;6.95;;;1.60;;
13592;SDS011;6867;50.998;4.250;2023-08-06T13:44:05;5.90;;;2.03;;
13592;SDS011;6867;50.998;4.250;2023-08-06T13:46:32;7.65;;;1.95;;
13592;SDS011;6867;50.998;4.250;2023-08-06T13:48:59;3.17;;;1.58;;
13592;SDS011;6867;50.998;4.250;2023-08-06T13:51:27;8.00;;;1.92;;
13592;SDS011;6867;50.998;4.250;2023-08-06T13:53:53;8.52;;;1.58;;
13592;SDS011;6867;50.998;4.250;2023-08-06T13:56:21;7.28;;;2.03;;
13592;SDS011;6867;50.998;4.250;2023-08-06T13:58:48;6.10;;;1.83;;
13592;SDS011;6867;50.998;4.250;2023-08-06T14:01:16;7.50;;;1.98;;
13592;SDS011;6867;50.998;4.250;2023-08-06T14:03:43;6.72;;;1.70;;
13592;SDS011;6867;50.998;4.250;2023-08-06T14:06:10;10.23;;;2.55;;
13592;SDS011;6867;50.998;4.250;2023-08-06T14:08:38;12.18;;;2.35;;
13592;SDS011;6867;50.998;4.250;2023-08-06T14:11:05;7.32;;;2.08;;
13592;SDS011;6867;50.998;4.250;2023-08-06T14:13:32;6.45;;;2.05;;
13592;SDS011;6867;50.998;4.250;2023-08-06T14:15:59;11.68;;;2.22;;
13592;SDS011;6867;50.998;4.250;2023-08-06T14:18:25;6.57;;;1.88;;
13592;SDS011;6867;50.998;4.250;2023-08-06T14:20:52;8.95;;;3.20;;
13592;SDS011;6867;50.998;4.250;2023-08-06T14:23:19;11.00;;;2.70;;
13592;SDS011;6867;50.998;4.250;2023-08-06T14:25:47;9.45;;;2.28;;
13592;SDS011;6867;50.998;4.250;2023-08-06T14:28:14;7.78;;;2.30;;
13592;SDS011;6867;50.998;4.250;2023-08-06T14:30:40;9.82;;;2.17;;
13592;SDS011;6867;50.998;4.250;2023-08-06T14:33:07;7.53;;;2.85;;
13592;SDS011;6867;50.998;4.250;2023-08-06T14:35:34;12.95;;;3.28;;
13592;SDS011;6867;50.998;4.250;2023-08-06T14:38:00;9.60;;;2.58;;
13592;SDS011;6867;50.998;4.250;2023-08-06T14:40:27;8.93;;;2.75;;
13592;SDS011;6867;50.998;4.250;2023-08-06T14:43:00;10.25;;;2.25;;
13592;SDS011;6867;50.998;4.250;2023-08-06T14:45:27;10.88;;;2.55;;
13592;SDS011;6867;50.998;4.250;2023-08-06T14:47:54;8.45;;;2.17;;
13592;SDS011;6867;50.998;4.250;2023-08-06T14:50:21;14.32;;;2.88;;
13592;SDS011;6867;50.998;4.250;2023-08-06T14:52:48;7.38;;;2.50;;
13592;SDS011;6867;50.998;4.250;2023-08-06T14:55:17;5.80;;;1.65;;
13592;SDS011;6867;50.998;4.250;2023-08-06T14:57:48;4.07;;;1.08;;
13592;SDS011;6867;50.998;4.250;2023-08-06T15:00:17;4.57;;;1.42;;